Orlando, Florida
Traffic Map
Current Weather Conditions
Orlando, Florida
Few Clouds
Few Clouds
75°
Feels Like: 75°
Wind Chill: 75° Ceiling: Unl
Heat Index: 75° Visibility: 10mi
Dew Point: 65° Wind: 8mph
Humidity: 71% Direction: 70° (ENE)
Pressure: 30.06in Gusts: 0mph
Raw Report DataKORL 241153Z 07007KT 10SM FEW065 24/18 A3006 RMK AO2 SLP182 T02390183 10239 20222 53013
Traffic Incident Summary
Active as of:
Severity:
Category:
InformationThere was an issue retrieving the traffic information for this location. Please try a different location or try again shortly.
Advertisements
Track Severe Weather on mobile